Time;durP1;ratioP1;P1;durP2;ratioP2;P2;SDS_P1;SDS_P2;PMS_P1;PMS_P2;Temp;Humidity;BMP_temperature;BMP_pressure;BME280_temperature;BME280_humidity;BME280_pressure;Samples;Min_cycle;Max_cycle;Signal;HPM_P1;HPM_P2
2023/10/06 00:02:08;;;;;;;;;;;;;;;;;;5115816;28;20291;-74
2023/10/06 00:04:38;;;;;;;;;;;;;;;;;;5115724;28;19911;-74
2023/10/06 00:07:07;;;;;;;;;;;;;;;;;;5118282;28;20016;-74
2023/10/06 00:09:32;;;;;;;;;;;;;;;;;;5101050;28;19916;-73
2023/10/06 00:11:59;;;;;;;;;;;;;;;;;;5118166;28;19926;-73
2023/10/06 00:14:40;;;;;;;;;;;;;;;;;;5115834;28;20014;-73
2023/10/06 00:17:09;;;;;;;;;;;;;;;;;;5097732;28;20385;-74
2023/10/06 00:19:37;;;;;;;;;;;;;;;;;;5116082;28;20443;-74
2023/10/06 00:24:43;;;;;;;;;;;;;;;;;;5114397;28;20003;-73
2023/10/06 00:27:12;;;;;;;;;;;;;;;;;;5115589;28;20002;-73
2023/10/06 00:29:38;;;;;;;;;;;;;;;;;;5115989;28;19996;-73
2023/10/06 00:32:21;;;;;;;;;;;;;;;;;;5097483;28;19920;-73
2023/10/06 00:34:47;;;;;;;;;;;;;;;;;;5115720;28;19920;-73
2023/10/06 00:37:13;;;;;;;;;;;;;;;;;;5097171;28;19908;-73
2023/10/06 00:39:39;;;;;;;;;;;;;;;;;;5080169;28;19920;-73
2023/10/06 00:42:06;;;;;;;;;;;;;;;;;;5115308;28;19922;-73
2023/10/06 00:44:32;;;;;;;;;;;;;;;;;;5115788;28;20283;-73
2023/10/06 00:46:59;;;;;;;;;;;;;;;;;;5097485;28;19912;-73
2023/10/06 00:49:24;;;;;;;;;;;;;;;;;;5115625;28;20374;-74
2023/10/06 00:51:49;;;;;;;;;;;;;;;;;;5097081;28;19919;-73
2023/10/06 00:54:15;;;;;;;;;;;;;;;;;;5115163;28;20357;-73
2023/10/06 00:56:40;;;;;;;;;;;;;;;;;;5115211;28;19966;-73
2023/10/06 00:59:05;;;;;;;;;;;;;;;;;;5115013;28;19919;-73
2023/10/06 01:01:34;;;;;;;;;;;;;;;;;;5115329;28;19923;-73
2023/10/06 01:04:08;;;;;;;;;;;;;;;;;;5096799;28;19950;-73
2023/10/06 01:06:33;;;;;;;;;;;;;;;;;;5115187;28;19916;-73
2023/10/06 01:09:05;;;;;;;;;;;;;;;;;;5096738;28;19923;-73
2023/10/06 01:11:31;;;;;;;;;;;;;;;;;;5096578;28;20404;-74
2023/10/06 01:13:56;;;;;;;;;;;;;;;;;;5096846;28;19991;-73
2023/10/06 01:16:22;;;;;;;;;;;;;;;;;;5114775;28;19916;-73
2023/10/06 01:18:49;;;;;;;;;;;;;;;;;;5114764;28;19965;-74
2023/10/06 01:21:17;;;;;;;;;;;;;;;;;;5114746;28;20366;-74
2023/10/06 01:23:43;;;;;;;;;;;;;;;;;;5114850;28;19919;-73
2023/10/06 01:26:09;;;;;;;;;;;;;;;;;;5096520;28;19915;-74
2023/10/06 01:28:35;;;;;;;;;;;;;;;;;;5114432;28;20053;-73
2023/10/06 01:31:02;;;;;;;;;;;;;;;;;;5096370;28;20010;-73
2023/10/06 01:33:27;;;;;;;;;;;;;;;;;;5114442;28;20002;-74
2023/10/06 01:35:53;;;;;;;;;;;;;;;;;;5096389;28;19958;-74
2023/10/06 01:38:29;;;;;;;;;;;;;;;;;;5096084;28;19919;-75
2023/10/06 01:40:54;;;;;;;;;;;;;;;;;;5114391;28;19923;-74
2023/10/06 01:43:23;;;;;;;;;;;;;;;;;;5114403;28;19926;-74
2023/10/06 01:45:48;;;;;;;;;;;;;;;;;;5114473;28;20287;-74
2023/10/06 01:50:42;;;;;;;;;;;;;;;;;;5113425;28;19973;-74
2023/10/06 01:53:16;;;;;;;;;;;;;;;;;;5095906;28;19916;-74
2023/10/06 01:55:41;;;;;;;;;;;;;;;;;;5096029;28;19962;-74
2023/10/06 01:58:11;;;;;;;;;;;;;;;;;;5095968;28;19986;-74
2023/10/06 02:00:37;;;;;;;;;;;;;;;;;;5114264;28;20291;-74
2023/10/06 02:03:10;;;;;;;;;;;;;;;;;;5095792;28;19916;-73
2023/10/06 02:05:38;;;;;;;;;;;;;;;;;;5116518;28;19919;-73
2023/10/06 02:08:04;;;;;;;;;;;;;;;;;;5099925;28;19923;-73
2023/10/06 02:10:32;;;;;;;;;;;;;;;;;;5116796;28;19915;-73
2023/10/06 02:12:57;;;;;;;;;;;;;;;;;;5096001;28;19926;-73
2023/10/06 02:15:27;;;;;;;;;;;;;;;;;;5091802;28;19927;-74
2023/10/06 02:17:52;;;;;;;;;;;;;;;;;;5089848;28;19920;-74
2023/10/06 02:22:49;;;;;;;;;;;;;;;;;;5089489;28;20401;-74
2023/10/06 02:25:15;;;;;;;;;;;;;;;;;;5071070;28;19959;-74
2023/10/06 02:27:50;;;;;;;;;;;;;;;;;;5071368;28;20010;-75
2023/10/06 02:30:15;;;;;;;;;;;;;;;;;;5070302;28;20314;-74
2023/10/06 02:32:41;;;;;;;;;;;;;;;;;;5070274;28;19930;-74
2023/10/06 02:35:07;;;;;;;;;;;;;;;;;;5088359;28;20367;-73
2023/10/06 02:37:33;;;;;;;;;;;;;;;;;;5071015;28;19917;-74
2023/10/06 02:39:59;;;;;;;;;;;;;;;;;;5088059;28;19946;-73
2023/10/06 02:42:25;;;;;;;;;;;;;;;;;;5087623;28;20432;-73
2023/10/06 02:44:51;;;;;;;;;;;;;;;;;;5068980;28;19923;-73
2023/10/06 02:47:17;;;;;;;;;;;;;;;;;;5087164;28;20284;-74
2023/10/06 02:49:49;;;;;;;;;;;;;;;;;;5087044;28;19917;-74
2023/10/06 02:52:21;;;;;;;;;;;;;;;;;;5087452;28;19916;-75
2023/10/06 02:55:12;;;;;;;;;;;;;;;;;;5087030;28;19920;-75
2023/10/06 02:57:38;;;;;;;;;;;;;;;;;;5069977;28;20371;-74
2023/10/06 03:02:47;;;;;;;;;;;;;;;;;;5091263;28;19916;-74
2023/10/06 03:05:32;;;;;;;;;;;;;;;;;;5092625;28;19916;-74
2023/10/06 03:07:58;;;;;;;;;;;;;;;;;;5074214;28;19922;-74
2023/10/06 03:10:27;;;;;;;;;;;;;;;;;;5057669;28;19916;-74
2023/10/06 03:12:52;;;;;;;;;;;;;;;;;;5074208;28;19913;-75
2023/10/06 03:15:35;;;;;;;;;;;;;;;;;;5074138;28;19920;-75
2023/10/06 03:18:02;;;;;;;;;;;;;;;;;;5074317;28;19920;-74
2023/10/06 03:20:39;;;;;;;;;;;;;;;;;;5057056;28;20428;-74
2023/10/06 03:23:13;;;;;;;;;;;;;;;;;;5092247;28;19920;-74
2023/10/06 03:25:39;;;;;;;;;;;;;;;;;;5074250;28;20279;-74
2023/10/06 03:28:05;;;;;;;;;;;;;;;;;;5073978;28;20413;-75
2023/10/06 03:30:36;;;;;;;;;;;;;;;;;;5092484;28;19952;-75
2023/10/06 03:33:11;;;;;;;;;;;;;;;;;;5092054;28;20325;-75
2023/10/06 03:35:45;;;;;;;;;;;;;;;;;;5074030;28;19990;-73
2023/10/06 03:40:53;;;;;;;;;;;;;;;;;;5073738;28;19952;-75
2023/10/06 03:43:36;;;;;;;;;;;;;;;;;;5091897;28;20287;-74
2023/10/06 03:46:02;;;;;;;;;;;;;;;;;;5073776;28;20022;-75
2023/10/06 03:48:29;;;;;;;;;;;;;;;;;;5073233;28;19970;-75
2023/10/06 03:50:55;;;;;;;;;;;;;;;;;;5092061;28;19916;-75
2023/10/06 03:53:21;;;;;;;;;;;;;;;;;;5091192;28;19916;-74
2023/10/06 03:55:47;;;;;;;;;;;;;;;;;;5092179;28;19920;-75
2023/10/06 03:58:13;;;;;;;;;;;;;;;;;;5092377;28;19916;-75
2023/10/06 04:00:40;;;;;;;;;;;;;;;;;;5091076;28;20390;-74
2023/10/06 04:03:05;;;;;;;;;;;;;;;;;;5092029;28;19963;-75
2023/10/06 04:05:37;;;;;;;;;;;;;;;;;;5094656;28;19939;-75
2023/10/06 04:08:07;;;;;;;;;;;;;;;;;;5095894;28;20268;-75
2023/10/06 04:10:35;;;;;;;;;;;;;;;;;;5094505;28;19927;-75
2023/10/06 04:13:00;;;;;;;;;;;;;;;;;;5091774;28;19922;-75
2023/10/06 04:15:26;;;;;;;;;;;;;;;;;;5089833;28;19919;-75
2023/10/06 04:17:51;;;;;;;;;;;;;;;;;;5091378;28;19916;-75
2023/10/06 04:20:17;;;;;;;;;;;;;;;;;;5091446;28;20429;-75
2023/10/06 04:22:42;;;;;;;;;;;;;;;;;;5091342;28;19927;-75
2023/10/06 04:25:10;;;;;;;;;;;;;;;;;;5091467;28;20757;-75
2023/10/06 04:27:36;;;;;;;;;;;;;;;;;;5091591;28;19958;-75
2023/10/06 04:30:04;;;;;;;;;;;;;;;;;;5091588;28;19916;-74
2023/10/06 04:32:29;;;;;;;;;;;;;;;;;;5091440;28;19912;-74
2023/10/06 04:34:55;;;;;;;;;;;;;;;;;;5090019;28;20011;-75
2023/10/06 04:37:20;;;;;;;;;;;;;;;;;;5091103;28;19994;-74
2023/10/06 04:39:45;;;;;;;;;;;;;;;;;;5090942;28;19931;-74
2023/10/06 04:42:11;;;;;;;;;;;;;;;;;;5090079;28;19916;-74
2023/10/06 04:44:36;;;;;;;;;;;;;;;;;;5090610;28;20018;-75
2023/10/06 04:47:01;;;;;;;;;;;;;;;;;;5090758;28;19916;-75
2023/10/06 04:49:28;;;;;;;;;;;;;;;;;;5090874;28;19916;-75
2023/10/06 04:51:54;;;;;;;;;;;;;;;;;;5090881;28;20327;-74
2023/10/06 04:54:20;;;;;;;;;;;;;;;;;;5090773;28;20006;-73
2023/10/06 04:56:45;;;;;;;;;;;;;;;;;;5090471;28;19916;-73
2023/10/06 04:59:11;;;;;;;;;;;;;;;;;;5090885;28;19920;-74
2023/10/06 05:01:36;;;;;;;;;;;;;;;;;;5099022;28;19919;-75
2023/10/06 05:04:06;;;;;;;;;;;;;;;;;;5110709;28;19920;-75
2023/10/06 05:06:32;;;;;;;;;;;;;;;;;;5094046;28;20024;-73
2023/10/06 05:08:58;;;;;;;;;;;;;;;;;;5090532;28;19951;-74
2023/10/06 05:11:23;;;;;;;;;;;;;;;;;;5108032;28;19920;-74
2023/10/06 05:13:55;;;;;;;;;;;;;;;;;;5109504;28;19916;-73
2023/10/06 05:16:22;;;;;;;;;;;;;;;;;;5109643;28;20351;-75
2023/10/06 05:18:48;;;;;;;;;;;;;;;;;;5055569;28;19952;-74
2023/10/06 05:21:15;;;;;;;;;;;;;;;;;;5101500;28;19973;-73
2023/10/06 05:23:41;;;;;;;;;;;;;;;;;;5103029;28;20424;-73
2023/10/06 05:26:10;;;;;;;;;;;;;;;;;;5109296;28;20382;-75
2023/10/06 05:28:37;;;;;;;;;;;;;;;;;;5110273;28;19924;-75
2023/10/06 05:31:02;;;;;;;;;;;;;;;;;;5110373;28;19916;-75
2023/10/06 05:33:27;;;;;;;;;;;;;;;;;;5091457;28;19929;-73
2023/10/06 05:35:53;;;;;;;;;;;;;;;;;;5109843;28;19915;-73
2023/10/06 05:38:19;;;;;;;;;;;;;;;;;;5110406;28;19941;-75
2023/10/06 05:40:44;;;;;;;;;;;;;;;;;;5110024;28;19924;-74
2023/10/06 05:43:11;;;;;;;;;;;;;;;;;;5109358;28;19923;-74
2023/10/06 05:45:39;;;;;;;;;;;;;;;;;;5110331;28;19924;-74
2023/10/06 05:48:06;;;;;;;;;;;;;;;;;;5110290;28;20015;-73
2023/10/06 05:50:35;;;;;;;;;;;;;;;;;;5110025;28;19916;-74
2023/10/06 05:53:12;;;;;;;;;;;;;;;;;;5110304;28;19924;-74
2023/10/06 05:55:38;;;;;;;;;;;;;;;;;;5091807;28;19916;-74
2023/10/06 05:58:03;;;;;;;;;;;;;;;;;;5110192;28;19919;-74
2023/10/06 06:00:31;;;;;;;;;;;;;;;;;;5109711;28;19927;-74
2023/10/06 06:03:06;;;;;;;;;;;;;;;;;;5095138;28;19927;-75
2023/10/06 06:05:33;;;;;;;;;;;;;;;;;;5093044;28;20014;-75
2023/10/06 06:07:59;;;;;;;;;;;;;;;;;;5093504;28;19916;-75
2023/10/06 06:10:25;;;;;;;;;;;;;;;;;;5101678;28;19927;-73
2023/10/06 06:12:50;;;;;;;;;;;;;;;;;;5109528;28;20367;-74
2023/10/06 06:15:16;;;;;;;;;;;;;;;;;;5097715;28;20403;-73
2023/10/06 06:17:42;;;;;;;;;;;;;;;;;;5108679;28;19920;-73
2023/10/06 06:20:08;;;;;;;;;;;;;;;;;;5109633;28;19916;-73
2023/10/06 06:22:37;;;;;;;;;;;;;;;;;;5106048;28;19916;-73
2023/10/06 06:25:04;;;;;;;;;;;;;;;;;;5110016;28;20015;-74
2023/10/06 06:27:31;;;;;;;;;;;;;;;;;;5104937;28;19920;-74
2023/10/06 06:29:57;;;;;;;;;;;;;;;;;;5092844;28;19926;-74
2023/10/06 06:32:25;;;;;;;;;;;;;;;;;;5109175;28;20309;-74
2023/10/06 06:34:50;;;;;;;;;;;;;;;;;;5109515;28;20299;-75
2023/10/06 06:37:16;;;;;;;;;;;;;;;;;;5108933;28;19915;-74
2023/10/06 06:39:44;;;;;;;;;;;;;;;;;;5109782;28;19939;-74
2023/10/06 06:42:10;;;;;;;;;;;;;;;;;;5109951;28;20307;-74
2023/10/06 06:44:36;;;;;;;;;;;;;;;;;;5090586;28;20029;-74
2023/10/06 06:47:01;;;;;;;;;;;;;;;;;;5109630;28;19977;-76
2023/10/06 06:49:27;;;;;;;;;;;;;;;;;;5106499;28;19922;-73
2023/10/06 06:51:53;;;;;;;;;;;;;;;;;;5109845;28;20302;-73
2023/10/06 06:54:19;;;;;;;;;;;;;;;;;;5100019;28;20003;-74
2023/10/06 06:56:47;;;;;;;;;;;;;;;;;;5094455;28;19920;-75
2023/10/06 06:59:12;;;;;;;;;;;;;;;;;;5100624;28;19920;-74
2023/10/06 07:01:38;;;;;;;;;;;;;;;;;;5081166;28;19920;-75
2023/10/06 07:04:04;;;;;;;;;;;;;;;;;;5089847;28;19922;-74
2023/10/06 07:06:30;;;;;;;;;;;;;;;;;;5088511;28;19916;-74
2023/10/06 07:08:57;;;;;;;;;;;;;;;;;;5088940;28;20003;-74
2023/10/06 07:11:22;;;;;;;;;;;;;;;;;;5089233;28;19916;-74
2023/10/06 07:13:48;;;;;;;;;;;;;;;;;;5089463;28;19916;-74
2023/10/06 07:16:14;;;;;;;;;;;;;;;;;;5088756;28;19916;-74
2023/10/06 07:18:39;;;;;;;;;;;;;;;;;;5089160;28;20011;-75
2023/10/06 07:21:05;;;;;;;;;;;;;;;;;;5088700;28;20443;-74
2023/10/06 07:23:34;;;;;;;;;;;;;;;;;;5090852;28;19920;-75
2023/10/06 07:26:00;;;;;;;;;;;;;;;;;;5071560;28;19916;-75
2023/10/06 07:28:27;;;;;;;;;;;;;;;;;;5088370;28;19922;-74
2023/10/06 07:30:52;;;;;;;;;;;;;;;;;;5088522;28;19916;-74
2023/10/06 07:33:18;;;;;;;;;;;;;;;;;;5074191;28;20003;-74
2023/10/06 07:35:45;;;;;;;;;;;;;;;;;;5084613;28;19916;-74
2023/10/06 07:38:13;;;;;;;;;;;;;;;;;;5089024;28;19916;-75
2023/10/06 07:40:39;;;;;;;;;;;;;;;;;;5087894;28;19974;-75
2023/10/06 07:43:09;;;;;;;;;;;;;;;;;;5100930;28;19958;-75
2023/10/06 07:45:35;;;;;;;;;;;;;;;;;;5086990;28;19947;-74
2023/10/06 07:48:01;;;;;;;;;;;;;;;;;;5081059;28;19959;-74
2023/10/06 07:50:28;;;;;;;;;;;;;;;;;;5073163;28;20011;-74
2023/10/06 07:52:54;;;;;;;;;;;;;;;;;;5091788;28;19912;-75
2023/10/06 07:55:22;;;;;;;;;;;;;;;;;;5091823;28;19961;-75
2023/10/06 07:57:48;;;;;;;;;;;;;;;;;;5091817;28;20006;-74
2023/10/06 08:00:18;;;;;;;;;;;;;;;;;;5091563;28;20022;-74
2023/10/06 08:02:44;;;;;;;;;;;;;;;;;;5073238;28;19970;-74
2023/10/06 08:05:12;;;;;;;;;;;;;;;;;;5093456;28;19916;-74
2023/10/06 08:07:38;;;;;;;;;;;;;;;;;;5075567;28;20362;-74
2023/10/06 08:10:05;;;;;;;;;;;;;;;;;;5094161;28;19927;-74
2023/10/06 08:12:33;;;;;;;;;;;;;;;;;;5072739;28;19923;-74
2023/10/06 08:14:59;;;;;;;;;;;;;;;;;;5091782;28;20006;-74
2023/10/06 08:17:27;;;;;;;;;;;;;;;;;;5091362;28;20062;-74
2023/10/06 08:19:54;;;;;;;;;;;;;;;;;;5091184;28;19920;-74
2023/10/06 08:22:22;;;;;;;;;;;;;;;;;;5091218;28;19923;-74
2023/10/06 08:24:47;;;;;;;;;;;;;;;;;;5090803;28;19992;-74
2023/10/06 08:27:12;;;;;;;;;;;;;;;;;;5091217;28;19916;-74
2023/10/06 08:29:38;;;;;;;;;;;;;;;;;;5073080;28;20027;-74
2023/10/06 08:32:04;;;;;;;;;;;;;;;;;;5091040;28;20366;-74
2023/10/06 08:34:30;;;;;;;;;;;;;;;;;;5090817;28;19916;-74
2023/10/06 08:36:56;;;;;;;;;;;;;;;;;;5091179;28;19918;-75
2023/10/06 08:39:21;;;;;;;;;;;;;;;;;;5091278;28;20023;-75
2023/10/06 08:41:46;;;;;;;;;;;;;;;;;;5091003;28;19927;-74
2023/10/06 08:44:12;;;;;;;;;;;;;;;;;;5091104;28;19923;-74
2023/10/06 08:46:41;;;;;;;;;;;;;;;;;;5091057;28;20391;-74
2023/10/06 08:49:07;;;;;;;;;;;;;;;;;;5072386;28;19919;-74
2023/10/06 08:51:32;;;;;;;;;;;;;;;;;;5090752;28;19920;-75
2023/10/06 08:53:58;;;;;;;;;;;;;;;;;;5090781;28;19920;-75
2023/10/06 08:56:23;;;;;;;;;;;;;;;;;;5090395;28;19920;-75
2023/10/06 08:58:49;;;;;;;;;;;;;;;;;;5091050;28;20439;-75
2023/10/06 09:01:14;;;;;;;;;;;;;;;;;;5090517;28;20349;-75
2023/10/06 09:03:39;;;;;;;;;;;;;;;;;;5090834;28;20302;-75
2023/10/06 09:06:05;;;;;;;;;;;;;;;;;;5090454;28;19966;-75
2023/10/06 09:08:30;;;;;;;;;;;;;;;;;;5090152;28;19916;-75
2023/10/06 09:10:55;;;;;;;;;;;;;;;;;;5090593;28;19916;-75
2023/10/06 09:13:21;;;;;;;;;;;;;;;;;;5090461;28;19920;-75
2023/10/06 09:15:46;;;;;;;;;;;;;;;;;;5090541;28;19930;-76
2023/10/06 09:18:12;;;;;;;;;;;;;;;;;;5090250;28;19998;-75
2023/10/06 09:20:37;;;;;;;;;;;;;;;;;;5090006;28;19926;-75
2023/10/06 09:23:03;;;;;;;;;;;;;;;;;;5090193;28;19919;-77
2023/10/06 09:25:29;;;;;;;;;;;;;;;;;;5072617;28;20364;-75
2023/10/06 09:27:54;;;;;;;;;;;;;;;;;;5090682;28;19912;-75
2023/10/06 09:30:22;;;;;;;;;;;;;;;;;;5090316;28;19917;-75
2023/10/06 09:32:49;;;;;;;;;;;;;;;;;;5090007;28;19969;-74
2023/10/06 09:35:16;;;;;;;;;;;;;;;;;;5090099;28;20409;-75
2023/10/06 09:37:41;;;;;;;;;;;;;;;;;;5090392;28;19912;-75
2023/10/06 09:40:22;;;;;;;;;;;;;;;;;;5072267;28;20586;-75
2023/10/06 09:42:48;;;;;;;;;;;;;;;;;;5089788;28;19916;-75
2023/10/06 09:45:16;;;;;;;;;;;;;;;;;;5089828;28;19916;-75
2023/10/06 09:47:41;;;;;;;;;;;;;;;;;;5090032;28;19920;-74
2023/10/06 09:50:07;;;;;;;;;;;;;;;;;;5072154;28;20256;-75
2023/10/06 09:52:32;;;;;;;;;;;;;;;;;;5071689;28;19977;-73
2023/10/06 09:54:58;;;;;;;;;;;;;;;;;;5090238;28;19923;-74
2023/10/06 09:57:23;;;;;;;;;;;;;;;;;;5089997;28;20548;-74
2023/10/06 09:59:49;;;;;;;;;;;;;;;;;;5089571;28;20390;-74
2023/10/06 10:02:16;;;;;;;;;;;;;;;;;;5089739;28;19999;-74
2023/10/06 10:04:41;;;;;;;;;;;;;;;;;;5090006;28;19923;-74
2023/10/06 10:07:07;;;;;;;;;;;;;;;;;;5090092;28;19912;-74
2023/10/06 10:09:37;;;;;;;;;;;;;;;;;;5072047;28;19930;-75
2023/10/06 10:12:04;;;;;;;;;;;;;;;;;;5089736;28;19965;-73
2023/10/06 10:14:29;;;;;;;;;;;;;;;;;;5089681;28;19916;-73
2023/10/06 10:16:56;;;;;;;;;;;;;;;;;;5089684;28;19990;-74
2023/10/06 10:19:25;;;;;;;;;;;;;;;;;;5071442;28;19931;-74
2023/10/06 10:21:50;;;;;;;;;;;;;;;;;;5089789;28;20800;-73
2023/10/06 10:24:16;;;;;;;;;;;;;;;;;;5089229;28;19927;-73
2023/10/06 10:26:41;;;;;;;;;;;;;;;;;;5071206;28;19917;-75
2023/10/06 10:29:07;;;;;;;;;;;;;;;;;;5071459;28;19951;-74
2023/10/06 10:31:33;;;;;;;;;;;;;;;;;;5089673;28;20020;-73
2023/10/06 10:33:58;;;;;;;;;;;;;;;;;;5089012;28;19923;-74
2023/10/06 10:36:24;;;;;;;;;;;;;;;;;;5089317;28;19990;-74
2023/10/06 10:38:50;;;;;;;;;;;;;;;;;;5089317;28;20440;-74
2023/10/06 10:41:17;;;;;;;;;;;;;;;;;;5071286;28;19971;-74
2023/10/06 10:43:45;;;;;;;;;;;;;;;;;;5089209;28;19917;-73
2023/10/06 10:46:12;;;;;;;;;;;;;;;;;;5089492;28;19916;-73
2023/10/06 10:48:38;;;;;;;;;;;;;;;;;;5089053;28;19923;-73
2023/10/06 10:51:05;;;;;;;;;;;;;;;;;;5071073;28;19916;-73
2023/10/06 10:53:31;;;;;;;;;;;;;;;;;;5088915;28;20354;-73
2023/10/06 10:55:56;;;;;;;;;;;;;;;;;;5089054;28;20019;-73
2023/10/06 10:58:21;;;;;;;;;;;;;;;;;;5088785;28;19935;-73
2023/10/06 11:00:47;;;;;;;;;;;;;;;;;;5089161;28;19919;-73
2023/10/06 11:03:12;;;;;;;;;;;;;;;;;;5070962;28;19943;-73
2023/10/06 11:05:38;;;;;;;;;;;;;;;;;;5088639;28;19923;-73
2023/10/06 11:08:05;;;;;;;;;;;;;;;;;;5089155;28;19912;-73
2023/10/06 11:10:32;;;;;;;;;;;;;;;;;;5088907;28;19969;-73
2023/10/06 11:12:57;;;;;;;;;;;;;;;;;;5088851;28;19919;-73
2023/10/06 11:15:23;;;;;;;;;;;;;;;;;;5088508;28;19920;-73
2023/10/06 11:17:48;;;;;;;;;;;;;;;;;;5088839;28;20010;-73
2023/10/06 11:20:16;;;;;;;;;;;;;;;;;;5088411;28;19950;-73
2023/10/06 11:22:41;;;;;;;;;;;;;;;;;;5070275;28;19931;-73
2023/10/06 11:25:08;;;;;;;;;;;;;;;;;;5091336;28;19915;-73
2023/10/06 11:27:37;;;;;;;;;;;;;;;;;;5092099;28;19939;-73
2023/10/06 11:30:03;;;;;;;;;;;;;;;;;;5092343;28;20355;-73
2023/10/06 11:32:28;;;;;;;;;;;;;;;;;;5092256;28;19912;-73
2023/10/06 11:34:54;;;;;;;;;;;;;;;;;;5092195;28;19920;-73
2023/10/06 11:37:23;;;;;;;;;;;;;;;;;;5092305;28;20337;-73
2023/10/06 11:39:49;;;;;;;;;;;;;;;;;;5092111;28;20321;-73
2023/10/06 11:42:14;;;;;;;;;;;;;;;;;;5092140;28;19919;-73
2023/10/06 11:44:39;;;;;;;;;;;;;;;;;;5091797;28;20279;-73
2023/10/06 11:47:05;;;;;;;;;;;;;;;;;;5092080;28;20902;-73
2023/10/06 11:49:30;;;;;;;;;;;;;;;;;;5091871;28;19916;-73
2023/10/06 11:51:57;;;;;;;;;;;;;;;;;;5091938;28;20108;-73
2023/10/06 11:54:22;;;;;;;;;;;;;;;;;;5091681;28;19912;-73
2023/10/06 11:56:48;;;;;;;;;;;;;;;;;;5091606;28;20444;-73
2023/10/06 11:59:14;;;;;;;;;;;;;;;;;;5091383;28;19920;-73
2023/10/06 12:01:40;;;;;;;;;;;;;;;;;;5103100;28;19916;-73
2023/10/06 12:04:06;;;;;;;;;;;;;;;;;;5112079;28;19959;-74
2023/10/06 12:06:31;;;;;;;;;;;;;;;;;;5103696;28;19916;-73
2023/10/06 12:08:57;;;;;;;;;;;;;;;;;;5109883;28;20397;-73
2023/10/06 12:11:24;;;;;;;;;;;;;;;;;;5108341;28;19958;-74
2023/10/06 12:13:50;;;;;;;;;;;;;;;;;;5102382;28;19972;-74
2023/10/06 12:16:16;;;;;;;;;;;;;;;;;;5100921;28;19989;-73
2023/10/06 12:18:44;;;;;;;;;;;;;;;;;;5091065;28;20347;-74
2023/10/06 12:21:11;;;;;;;;;;;;;;;;;;5092524;28;19967;-74
2023/10/06 12:23:36;;;;;;;;;;;;;;;;;;5096233;28;19919;-73
2023/10/06 12:26:05;;;;;;;;;;;;;;;;;;5107476;28;19919;-74
2023/10/06 12:28:30;;;;;;;;;;;;;;;;;;5106691;28;19995;-74
2023/10/06 12:30:56;;;;;;;;;;;;;;;;;;5106873;28;20053;-73
2023/10/06 12:33:21;;;;;;;;;;;;;;;;;;5104976;28;19934;-72
2023/10/06 12:35:50;;;;;;;;;;;;;;;;;;5102385;28;19920;-73
2023/10/06 12:38:17;;;;;;;;;;;;;;;;;;5101944;28;19918;-72
2023/10/06 12:40:46;;;;;;;;;;;;;;;;;;5103162;28;19924;-73
2023/10/06 12:43:12;;;;;;;;;;;;;;;;;;5111278;28;19915;-73
2023/10/06 12:45:38;;;;;;;;;;;;;;;;;;5106426;28;19974;-72
2023/10/06 12:48:04;;;;;;;;;;;;;;;;;;5072168;28;20383;-72
2023/10/06 12:50:30;;;;;;;;;;;;;;;;;;5088662;28;19919;-74
2023/10/06 12:52:56;;;;;;;;;;;;;;;;;;5088940;28;20268;-74
2023/10/06 12:55:22;;;;;;;;;;;;;;;;;;5089192;28;19943;-73
2023/10/06 12:57:47;;;;;;;;;;;;;;;;;;5089557;28;19920;-74
2023/10/06 13:00:13;;;;;;;;;;;;;;;;;;5090767;28;19920;-73
2023/10/06 13:02:38;;;;;;;;;;;;;;;;;;5089816;28;19923;-73
2023/10/06 13:05:13;;;;;;;;;;;;;;;;;;5089164;28;20316;-73
2023/10/06 13:07:38;;;;;;;;;;;;;;;;;;5090005;28;19927;-73
2023/10/06 13:10:06;;;;;;;;;;;;;;;;;;5090171;28;19928;-73
2023/10/06 13:12:32;;;;;;;;;;;;;;;;;;5090596;28;19926;-73
2023/10/06 13:14:59;;;;;;;;;;;;;;;;;;5091207;28;20392;-73
2023/10/06 13:17:25;;;;;;;;;;;;;;;;;;5090828;28;20140;-73
2023/10/06 13:19:50;;;;;;;;;;;;;;;;;;5090404;28;20332;-74
2023/10/06 13:22:15;;;;;;;;;;;;;;;;;;5072283;28;19916;-73
2023/10/06 13:24:41;;;;;;;;;;;;;;;;;;5090038;28;19954;-73
2023/10/06 13:27:08;;;;;;;;;;;;;;;;;;5090542;28;19920;-73
2023/10/06 13:29:37;;;;;;;;;;;;;;;;;;5090760;28;19913;-73
2023/10/06 13:32:02;;;;;;;;;;;;;;;;;;5090787;28;19912;-73
2023/10/06 13:34:27;;;;;;;;;;;;;;;;;;5090673;28;19916;-73
2023/10/06 13:36:54;;;;;;;;;;;;;;;;;;5090014;28;19920;-74
2023/10/06 13:39:24;;;;;;;;;;;;;;;;;;5091040;28;19912;-73
2023/10/06 13:41:50;;;;;;;;;;;;;;;;;;5104652;28;19920;-71
2023/10/06 13:44:16;;;;;;;;;;;;;;;;;;5107481;28;20221;-74
2023/10/06 13:46:42;;;;;;;;;;;;;;;;;;5108570;28;19964;-73
2023/10/06 13:49:07;;;;;;;;;;;;;;;;;;5109286;28;20231;-73
2023/10/06 13:51:34;;;;;;;;;;;;;;;;;;5088944;28;19916;-73
2023/10/06 13:53:59;;;;;;;;;;;;;;;;;;5089966;28;19973;-73
2023/10/06 13:56:25;;;;;;;;;;;;;;;;;;5088624;28;20046;-73
2023/10/06 13:58:50;;;;;;;;;;;;;;;;;;5088391;28;20291;-72
2023/10/06 14:01:15;;;;;;;;;;;;;;;;;;5101848;28;19919;-73
2023/10/06 14:03:42;;;;;;;;;;;;;;;;;;5099628;28;19912;-76
2023/10/06 14:06:08;;;;;;;;;;;;;;;;;;5104801;28;20379;-73
2023/10/06 14:08:33;;;;;;;;;;;;;;;;;;5107537;28;19912;-71
2023/10/06 14:10:59;;;;;;;;;;;;;;;;;;5100951;28;19915;-74
2023/10/06 14:13:26;;;;;;;;;;;;;;;;;;5098036;28;19920;-74
2023/10/06 14:15:54;;;;;;;;;;;;;;;;;;5071212;28;19955;-74
2023/10/06 14:18:23;;;;;;;;;;;;;;;;;;5089730;28;19951;-73
2023/10/06 14:20:58;;;;;;;;;;;;;;;;;;5071004;28;20452;-74
2023/10/06 14:23:30;;;;;;;;;;;;;;;;;;5092936;28;20363;-73
2023/10/06 14:25:56;;;;;;;;;;;;;;;;;;5094171;28;19919;-75
2023/10/06 14:28:22;;;;;;;;;;;;;;;;;;5091290;28;19927;-72
2023/10/06 14:30:49;;;;;;;;;;;;;;;;;;5090272;28;19923;-73
2023/10/06 14:33:22;;;;;;;;;;;;;;;;;;5089232;28;19933;-73
2023/10/06 14:46:26;;;;;;;;;;;;;;;;;;5087639;28;20352;-73
2023/10/06 14:48:51;;;;;;;;;;;;;;;;;;5089068;28;19919;-72
2023/10/06 14:51:18;;;;;;;;;;;;;;;;;;5089108;28;19920;-72
2023/10/06 14:53:44;;;;;;;;;;;;;;;;;;5089690;28;19918;-72
2023/10/06 14:56:11;;;;;;;;;;;;;;;;;;5088206;28;20313;-72
2023/10/06 14:58:37;;;;;;;;;;;;;;;;;;5090507;28;19970;-72
2023/10/06 15:01:05;;;;;;;;;;;;;;;;;;5092300;28;19920;-73
2023/10/06 15:03:31;;;;;;;;;;;;;;;;;;5091767;28;19923;-74
2023/10/06 15:05:59;;;;;;;;;;;;;;;;;;5090185;28;19971;-74
2023/10/06 15:08:25;;;;;;;;;;;;;;;;;;5092400;28;19920;-73
2023/10/06 15:10:51;;;;;;;;;;;;;;;;;;5111287;28;20355;-73
2023/10/06 15:13:18;;;;;;;;;;;;;;;;;;5112803;28;20346;-73
2023/10/06 15:15:44;;;;;;;;;;;;;;;;;;5113027;28;19994;-73
2023/10/06 15:18:09;;;;;;;;;;;;;;;;;;5094331;28;20015;-73
2023/10/06 15:20:35;;;;;;;;;;;;;;;;;;5112707;28;19928;-73
2023/10/06 15:23:00;;;;;;;;;;;;;;;;;;5094147;28;19916;-73
2023/10/06 15:25:27;;;;;;;;;;;;;;;;;;5111385;28;20007;-73
2023/10/06 15:27:53;;;;;;;;;;;;;;;;;;5110432;28;20252;-73
2023/10/06 15:30:18;;;;;;;;;;;;;;;;;;5092644;28;19969;-72
2023/10/06 15:32:43;;;;;;;;;;;;;;;;;;5110461;28;20406;-73
2023/10/06 15:35:09;;;;;;;;;;;;;;;;;;5111332;28;20378;-74
2023/10/06 15:37:35;;;;;;;;;;;;;;;;;;5111762;28;19919;-73
2023/10/06 15:40:00;;;;;;;;;;;;;;;;;;5094022;28;19943;-73
2023/10/06 15:42:25;;;;;;;;;;;;;;;;;;5111774;28;19919;-73
2023/10/06 15:44:51;;;;;;;;;;;;;;;;;;5113335;28;20324;-73
2023/10/06 15:47:16;;;;;;;;;;;;;;;;;;5112689;28;19916;-74
2023/10/06 15:49:43;;;;;;;;;;;;;;;;;;5111620;28;19915;-72
2023/10/06 15:52:09;;;;;;;;;;;;;;;;;;5112439;28;19912;-74
2023/10/06 15:54:34;;;;;;;;;;;;;;;;;;5111791;28;19961;-73
2023/10/06 15:57:00;;;;;;;;;;;;;;;;;;5111417;28;19916;-73
2023/10/06 15:59:29;;;;;;;;;;;;;;;;;;5112064;28;19916;-73
2023/10/06 16:01:54;;;;;;;;;;;;;;;;;;5110000;28;20435;-73
2023/10/06 16:04:22;;;;;;;;;;;;;;;;;;5108619;28;20011;-73
2023/10/06 16:06:48;;;;;;;;;;;;;;;;;;5109777;28;19916;-73
2023/10/06 16:09:16;;;;;;;;;;;;;;;;;;5109080;28;19926;-73
2023/10/06 16:11:41;;;;;;;;;;;;;;;;;;5109777;28;19938;-73
2023/10/06 16:14:07;;;;;;;;;;;;;;;;;;5109599;28;19939;-73
2023/10/06 16:16:34;;;;;;;;;;;;;;;;;;5110617;28;19916;-73
2023/10/06 16:19:00;;;;;;;;;;;;;;;;;;5110821;28;19916;-73
2023/10/06 16:21:25;;;;;;;;;;;;;;;;;;5109538;28;19969;-73
2023/10/06 16:23:52;;;;;;;;;;;;;;;;;;5110240;28;19979;-73
2023/10/06 16:26:18;;;;;;;;;;;;;;;;;;5094613;28;20352;-72
2023/10/06 16:28:43;;;;;;;;;;;;;;;;;;5110039;28;19941;-73
2023/10/06 16:31:12;;;;;;;;;;;;;;;;;;5109588;28;20411;-72
2023/10/06 16:33:41;;;;;;;;;;;;;;;;;;5109130;28;19993;-72
2023/10/06 16:36:06;;;;;;;;;;;;;;;;;;5109530;28;20363;-72
2023/10/06 16:38:31;;;;;;;;;;;;;;;;;;5109143;28;19973;-72
2023/10/06 16:40:57;;;;;;;;;;;;;;;;;;5109308;28;20386;-72
2023/10/06 16:43:22;;;;;;;;;;;;;;;;;;5109481;28;20264;-73
2023/10/06 16:45:48;;;;;;;;;;;;;;;;;;5109491;28;19912;-73
2023/10/06 16:48:13;;;;;;;;;;;;;;;;;;5109334;28;20034;-72
2023/10/06 16:50:41;;;;;;;;;;;;;;;;;;5108876;28;20456;-73
2023/10/06 16:53:07;;;;;;;;;;;;;;;;;;5109133;28;20701;-73
2023/10/06 16:55:32;;;;;;;;;;;;;;;;;;5109996;28;19930;-73
2023/10/06 16:57:59;;;;;;;;;;;;;;;;;;5110510;28;20414;-73
2023/10/06 17:00:25;;;;;;;;;;;;;;;;;;5109661;28;19919;-73
2023/10/06 17:02:50;;;;;;;;;;;;;;;;;;5109617;28;19916;-73
2023/10/06 17:05:16;;;;;;;;;;;;;;;;;;5108668;28;19976;-72
2023/10/06 17:07:41;;;;;;;;;;;;;;;;;;5109376;28;19927;-73